sensor_id;sensor_type;location;lat;lon;timestamp;P1;P2;P0
64138;PMS5003;50435;43.700;-79.318;2023-01-30T00:00:24;6;4;
64138;PMS5003;50435;43.700;-79.318;2023-01-30T00:02:52;6;4;
64138;PMS5003;50435;43.700;-79.318;2023-01-30T00:05:19;6;4;
64138;PMS5003;50435;43.700;-79.318;2023-01-30T00:07:46;3;3;
64138;PMS5003;50435;43.700;-79.318;2023-01-30T00:10:14;7;7;
64138;PMS5003;50435;43.700;-79.318;2023-01-30T00:12:42;4;2;
64138;PMS5003;50435;43.700;-79.318;2023-01-30T00:15:09;7;6;
64138;PMS5003;50435;43.700;-79.318;2023-01-30T00:17:37;4;4;
64138;PMS5003;50435;43.700;-79.318;2023-01-30T00:20:04;6;4;
64138;PMS5003;50435;43.700;-79.318;2023-01-30T00:22:32;6;6;
64138;PMS5003;50435;43.700;-79.318;2023-01-30T00:24:59;7;7;
64138;PMS5003;50435;43.700;-79.318;2023-01-30T00:27:27;7;7;
64138;PMS5003;50435;43.700;-79.318;2023-01-30T00:29:55;6;4;
64138;PMS5003;50435;43.700;-79.318;2023-01-30T00:32:22;4;4;
64138;PMS5003;50435;43.700;-79.318;2023-01-30T00:34:50;9;9;
64138;PMS5003;50435;43.700;-79.318;2023-01-30T00:37:17;3;3;
64138;PMS5003;50435;43.700;-79.318;2023-01-30T00:39:45;7;6;
64138;PMS5003;50435;43.700;-79.318;2023-01-30T00:42:12;8;6;
64138;PMS5003;50435;43.700;-79.318;2023-01-30T00:44:39;7;7;
64138;PMS5003;50435;43.700;-79.318;2023-01-30T00:47:07;8;7;
64138;PMS5003;50435;43.700;-79.318;2023-01-30T00:49:35;7;4;
64138;PMS5003;50435;43.700;-79.318;2023-01-30T00:52:03;9;9;
64138;PMS5003;50435;43.700;-79.318;2023-01-30T00:54:31;9;9;
64138;PMS5003;50435;43.700;-79.318;2023-01-30T00:56:58;7;4;
64138;PMS5003;50435;43.700;-79.318;2023-01-30T00:59:26;7;7;
64138;PMS5003;50435;43.700;-79.318;2023-01-30T01:01:53;4;4;
64138;PMS5003;50435;43.700;-79.318;2023-01-30T01:04:20;6;6;
64138;PMS5003;50435;43.700;-79.318;2023-01-30T01:06:48;7;7;
64138;PMS5003;50435;43.700;-79.318;2023-01-30T01:09:15;9;8;
64138;PMS5003;50435;43.700;-79.318;2023-01-30T01:11:43;7;7;
64138;PMS5003;50435;43.700;-79.318;2023-01-30T01:14:11;8;7;
64138;PMS5003;50435;43.700;-79.318;2023-01-30T01:16:38;7;7;
64138;PMS5003;50435;43.700;-79.318;2023-01-30T01:19:06;8;7;
64138;PMS5003;50435;43.700;-79.318;2023-01-30T01:21:33;6;6;
64138;PMS5003;50435;43.700;-79.318;2023-01-30T01:24:01;8;8;
64138;PMS5003;50435;43.700;-79.318;2023-01-30T01:26:28;7;7;
64138;PMS5003;50435;43.700;-79.318;2023-01-30T01:28:56;6;6;
64138;PMS5003;50435;43.700;-79.318;2023-01-30T01:31:24;6;4;
64138;PMS5003;50435;43.700;-79.318;2023-01-30T01:33:51;8;6;
64138;PMS5003;50435;43.700;-79.318;2023-01-30T01:36:19;7;6;
64138;PMS5003;50435;43.700;-79.318;2023-01-30T01:38:46;2;2;
64138;PMS5003;50435;43.700;-79.318;2023-01-30T01:41:14;10;6;
64138;PMS5003;50435;43.700;-79.318;2023-01-30T01:44:00;8;7;
64138;PMS5003;50435;43.700;-79.318;2023-01-30T01:46:31;8;6;
64138;PMS5003;50435;43.700;-79.318;2023-01-30T01:49:01;7;4;
64138;PMS5003;50435;43.700;-79.318;2023-01-30T01:51:32;7;7;
64138;PMS5003;50435;43.700;-79.318;2023-01-30T01:54:04;6;6;
64138;PMS5003;50435;43.700;-79.318;2023-01-30T01:56:36;8;6;
64138;PMS5003;50435;43.700;-79.318;2023-01-30T01:59:09;7;7;
64138;PMS5003;50435;43.700;-79.318;2023-01-30T02:01:39;4;4;
64138;PMS5003;50435;43.700;-79.318;2023-01-30T02:04:07;10;8;
64138;PMS5003;50435;43.700;-79.318;2023-01-30T02:06:37;12;8;
64138;PMS5003;50435;43.700;-79.318;2023-01-30T02:09:07;7;7;
64138;PMS5003;50435;43.700;-79.318;2023-01-30T02:11:37;8;4;
64138;PMS5003;50435;43.700;-79.318;2023-01-30T02:14:11;8;8;
64138;PMS5003;50435;43.700;-79.318;2023-01-30T02:16:40;6;6;
64138;PMS5003;50435;43.700;-79.318;2023-01-30T02:19:14;7;7;
64138;PMS5003;50435;43.700;-79.318;2023-01-30T02:21:58;6;4;
64138;PMS5003;50435;43.700;-79.318;2023-01-30T02:25:57;3;3;
64138;PMS5003;50435;43.700;-79.318;2023-01-30T02:31:04;4;4;
64138;PMS5003;50435;43.700;-79.318;2023-01-30T02:33:44;7;4;
64138;PMS5003;50435;43.700;-79.318;2023-01-30T02:36:24;4;4;
64138;PMS5003;50435;43.700;-79.318;2023-01-30T02:39:01;4;3;
64138;PMS5003;50435;43.700;-79.318;2023-01-30T02:41:35;6;6;
64138;PMS5003;50435;43.700;-79.318;2023-01-30T02:44:10;4;4;
64138;PMS5003;50435;43.700;-79.318;2023-01-30T02:46:45;3;3;
64138;PMS5003;50435;43.700;-79.318;2023-01-30T02:49:20;4;4;
64138;PMS5003;50435;43.700;-79.318;2023-01-30T02:51:51;4;4;
64138;PMS5003;50435;43.700;-79.318;2023-01-30T02:54:21;7;7;
64138;PMS5003;50435;43.700;-79.318;2023-01-30T02:56:49;7;4;
64138;PMS5003;50435;43.700;-79.318;2023-01-30T02:59:19;4;4;
64138;PMS5003;50435;43.700;-79.318;2023-01-30T03:01:54;3;3;
64138;PMS5003;50435;43.700;-79.318;2023-01-30T03:04:40;3;3;
64138;PMS5003;50435;43.700;-79.318;2023-01-30T03:07:23;4;4;
64138;PMS5003;50435;43.700;-79.318;2023-01-30T03:10:01;3;3;
64138;PMS5003;50435;43.700;-79.318;2023-01-30T03:12:39;4;4;
64138;PMS5003;50435;43.700;-79.318;2023-01-30T03:15:16;4;3;
64138;PMS5003;50435;43.700;-79.318;2023-01-30T03:17:49;3;3;
64138;PMS5003;50435;43.700;-79.318;2023-01-30T03:20:18;4;4;
64138;PMS5003;50435;43.700;-79.318;2023-01-30T03:22:47;3;3;
64138;PMS5003;50435;43.700;-79.318;2023-01-30T03:25:16;2;2;
64138;PMS5003;50435;43.700;-79.318;2023-01-30T03:27:45;7;4;
64138;PMS5003;50435;43.700;-79.318;2023-01-30T03:30:13;2;2;
64138;PMS5003;50435;43.700;-79.318;2023-01-30T03:32:42;3;2;
64138;PMS5003;50435;43.700;-79.318;2023-01-30T03:35:09;3;3;
64138;PMS5003;50435;43.700;-79.318;2023-01-30T03:37:36;2;2;
64138;PMS5003;50435;43.700;-79.318;2023-01-30T03:40:04;3;2;
64138;PMS5003;50435;43.700;-79.318;2023-01-30T03:42:33;3;2;
64138;PMS5003;50435;43.700;-79.318;2023-01-30T03:45:00;8;4;
64138;PMS5003;50435;43.700;-79.318;2023-01-30T03:47:28;3;3;
64138;PMS5003;50435;43.700;-79.318;2023-01-30T03:49:55;2;2;
64138;PMS5003;50435;43.700;-79.318;2023-01-30T03:52:22;2;2;
64138;PMS5003;50435;43.700;-79.318;2023-01-30T03:54:50;1;1;
64138;PMS5003;50435;43.700;-79.318;2023-01-30T03:57:17;2;2;
64138;PMS5003;50435;43.700;-79.318;2023-01-30T03:59:45;1;1;
64138;PMS5003;50435;43.700;-79.318;2023-01-30T04:02:12;2;2;
64138;PMS5003;50435;43.700;-79.318;2023-01-30T04:04:40;2;2;
64138;PMS5003;50435;43.700;-79.318;2023-01-30T04:07:07;1;1;
64138;PMS5003;50435;43.700;-79.318;2023-01-30T04:09:34;1;1;
64138;PMS5003;50435;43.700;-79.318;2023-01-30T04:12:02;4;2;
64138;PMS5003;50435;43.700;-79.318;2023-01-30T04:14:30;2;2;
64138;PMS5003;50435;43.700;-79.318;2023-01-30T04:16:58;1;1;
64138;PMS5003;50435;43.700;-79.318;2023-01-30T04:19:25;1;1;
64138;PMS5003;50435;43.700;-79.318;2023-01-30T04:21:52;1;1;
64138;PMS5003;50435;43.700;-79.318;2023-01-30T04:24:20;1;1;
64138;PMS5003;50435;43.700;-79.318;2023-01-30T04:26:47;1;1;
64138;PMS5003;50435;43.700;-79.318;2023-01-30T04:29:15;1;1;
64138;PMS5003;50435;43.700;-79.318;2023-01-30T04:31:42;1;1;
64138;PMS5003;50435;43.700;-79.318;2023-01-30T04:34:10;1;1;
64138;PMS5003;50435;43.700;-79.318;2023-01-30T04:36:37;2;2;
64138;PMS5003;50435;43.700;-79.318;2023-01-30T04:39:04;1;1;
64138;PMS5003;50435;43.700;-79.318;2023-01-30T04:41:32;0;0;
64138;PMS5003;50435;43.700;-79.318;2023-01-30T04:43:59;3;2;
64138;PMS5003;50435;43.700;-79.318;2023-01-30T04:46:27;1;1;
64138;PMS5003;50435;43.700;-79.318;2023-01-30T04:48:54;1;1;
64138;PMS5003;50435;43.700;-79.318;2023-01-30T04:51:22;1;1;
64138;PMS5003;50435;43.700;-79.318;2023-01-30T04:53:49;2;2;
64138;PMS5003;50435;43.700;-79.318;2023-01-30T04:56:16;1;1;
64138;PMS5003;50435;43.700;-79.318;2023-01-30T04:58:44;4;3;
64138;PMS5003;50435;43.700;-79.318;2023-01-30T05:01:12;1;1;
64138;PMS5003;50435;43.700;-79.318;2023-01-30T05:03:41;1;1;
64138;PMS5003;50435;43.700;-79.318;2023-01-30T05:06:09;2;2;
64138;PMS5003;50435;43.700;-79.318;2023-01-30T05:08:36;1;1;
64138;PMS5003;50435;43.700;-79.318;2023-01-30T05:11:04;0;0;
64138;PMS5003;50435;43.700;-79.318;2023-01-30T05:13:31;1;1;
64138;PMS5003;50435;43.700;-79.318;2023-01-30T05:15:58;0;0;
64138;PMS5003;50435;43.700;-79.318;2023-01-30T05:18:26;2;2;
64138;PMS5003;50435;43.700;-79.318;2023-01-30T05:20:53;1;1;
64138;PMS5003;50435;43.700;-79.318;2023-01-30T05:23:28;2;1;
64138;PMS5003;50435;43.700;-79.318;2023-01-30T05:25:55;2;1;
64138;PMS5003;50435;43.700;-79.318;2023-01-30T05:28:22;1;1;
64138;PMS5003;50435;43.700;-79.318;2023-01-30T05:30:50;1;1;
64138;PMS5003;50435;43.700;-79.318;2023-01-30T05:33:17;2;2;
64138;PMS5003;50435;43.700;-79.318;2023-01-30T05:35:45;0;0;
64138;PMS5003;50435;43.700;-79.318;2023-01-30T05:38:13;3;1;
64138;PMS5003;50435;43.700;-79.318;2023-01-30T05:40:41;1;1;
64138;PMS5003;50435;43.700;-79.318;2023-01-30T05:43:08;3;1;
64138;PMS5003;50435;43.700;-79.318;2023-01-30T05:45:36;2;2;
64138;PMS5003;50435;43.700;-79.318;2023-01-30T05:48:03;2;2;
64138;PMS5003;50435;43.700;-79.318;2023-01-30T05:50:30;2;2;
64138;PMS5003;50435;43.700;-79.318;2023-01-30T05:52:58;1;1;
64138;PMS5003;50435;43.700;-79.318;2023-01-30T05:55:25;2;1;
64138;PMS5003;50435;43.700;-79.318;2023-01-30T05:57:53;4;3;
64138;PMS5003;50435;43.700;-79.318;2023-01-30T06:00:21;2;2;
64138;PMS5003;50435;43.700;-79.318;2023-01-30T06:02:48;2;2;
64138;PMS5003;50435;43.700;-79.318;2023-01-30T06:05:15;2;2;
64138;PMS5003;50435;43.700;-79.318;2023-01-30T06:07:43;3;2;
64138;PMS5003;50435;43.700;-79.318;2023-01-30T06:10:10;1;1;
64138;PMS5003;50435;43.700;-79.318;2023-01-30T06:12:38;2;2;
64138;PMS5003;50435;43.700;-79.318;2023-01-30T06:15:05;2;2;
64138;PMS5003;50435;43.700;-79.318;2023-01-30T06:17:33;2;2;
64138;PMS5003;50435;43.700;-79.318;2023-01-30T06:20:01;3;1;
64138;PMS5003;50435;43.700;-79.318;2023-01-30T06:22:28;2;2;
64138;PMS5003;50435;43.700;-79.318;2023-01-30T06:24:56;1;1;
64138;PMS5003;50435;43.700;-79.318;2023-01-30T06:27:23;2;2;
64138;PMS5003;50435;43.700;-79.318;2023-01-30T06:29:51;1;1;
64138;PMS5003;50435;43.700;-79.318;2023-01-30T06:32:18;1;1;
64138;PMS5003;50435;43.700;-79.318;2023-01-30T06:34:46;1;1;
64138;PMS5003;50435;43.700;-79.318;2023-01-30T06:37:13;2;1;
64138;PMS5003;50435;43.700;-79.318;2023-01-30T06:39:40;1;1;
64138;PMS5003;50435;43.700;-79.318;2023-01-30T06:42:08;2;1;
64138;PMS5003;50435;43.700;-79.318;2023-01-30T06:44:35;0;0;
64138;PMS5003;50435;43.700;-79.318;2023-01-30T06:47:03;1;1;
64138;PMS5003;50435;43.700;-79.318;2023-01-30T06:49:30;2;2;
64138;PMS5003;50435;43.700;-79.318;2023-01-30T06:51:58;3;3;
64138;PMS5003;50435;43.700;-79.318;2023-01-30T06:54:25;1;1;
64138;PMS5003;50435;43.700;-79.318;2023-01-30T06:56:53;2;2;
64138;PMS5003;50435;43.700;-79.318;2023-01-30T06:59:20;1;1;
64138;PMS5003;50435;43.700;-79.318;2023-01-30T07:01:48;3;2;
64138;PMS5003;50435;43.700;-79.318;2023-01-30T07:04:15;2;0;
64138;PMS5003;50435;43.700;-79.318;2023-01-30T07:06:43;2;2;
64138;PMS5003;50435;43.700;-79.318;2023-01-30T07:09:11;2;2;
64138;PMS5003;50435;43.700;-79.318;2023-01-30T07:11:38;0;0;
64138;PMS5003;50435;43.700;-79.318;2023-01-30T07:14:06;3;1;
64138;PMS5003;50435;43.700;-79.318;2023-01-30T07:16:34;1;1;
64138;PMS5003;50435;43.700;-79.318;2023-01-30T07:19:02;1;1;
64138;PMS5003;50435;43.700;-79.318;2023-01-30T07:21:29;2;2;
64138;PMS5003;50435;43.700;-79.318;2023-01-30T07:23:57;1;1;
64138;PMS5003;50435;43.700;-79.318;2023-01-30T07:26:24;1;1;
64138;PMS5003;50435;43.700;-79.318;2023-01-30T07:28:52;0;0;
64138;PMS5003;50435;43.700;-79.318;2023-01-30T07:31:19;0;0;
64138;PMS5003;50435;43.700;-79.318;2023-01-30T07:33:47;1;1;
64138;PMS5003;50435;43.700;-79.318;2023-01-30T07:36:14;1;1;
64138;PMS5003;50435;43.700;-79.318;2023-01-30T07:38:42;1;1;
64138;PMS5003;50435;43.700;-79.318;2023-01-30T07:41:09;2;1;
64138;PMS5003;50435;43.700;-79.318;2023-01-30T07:43:36;1;1;
64138;PMS5003;50435;43.700;-79.318;2023-01-30T07:46:04;1;1;
64138;PMS5003;50435;43.700;-79.318;2023-01-30T07:48:32;0;0;
64138;PMS5003;50435;43.700;-79.318;2023-01-30T07:50:59;3;1;
64138;PMS5003;50435;43.700;-79.318;2023-01-30T07:53:26;0;0;
64138;PMS5003;50435;43.700;-79.318;2023-01-30T07:55:54;1;1;
64138;PMS5003;50435;43.700;-79.318;2023-01-30T07:58:21;2;1;
64138;PMS5003;50435;43.700;-79.318;2023-01-30T08:00:49;1;1;
64138;PMS5003;50435;43.700;-79.318;2023-01-30T08:03:20;2;1;
64138;PMS5003;50435;43.700;-79.318;2023-01-30T08:05:47;1;1;
64138;PMS5003;50435;43.700;-79.318;2023-01-30T08:08:15;0;0;
64138;PMS5003;50435;43.700;-79.318;2023-01-30T08:10:42;0;0;
64138;PMS5003;50435;43.700;-79.318;2023-01-30T08:13:10;1;1;
64138;PMS5003;50435;43.700;-79.318;2023-01-30T08:15:37;3;2;
64138;PMS5003;50435;43.700;-79.318;2023-01-30T08:18:05;2;2;
64138;PMS5003;50435;43.700;-79.318;2023-01-30T08:20:32;1;1;
64138;PMS5003;50435;43.700;-79.318;2023-01-30T08:23:00;1;1;
64138;PMS5003;50435;43.700;-79.318;2023-01-30T08:25:27;0;0;
64138;PMS5003;50435;43.700;-79.318;2023-01-30T08:27:57;0;0;
64138;PMS5003;50435;43.700;-79.318;2023-01-30T08:30:25;1;1;
64138;PMS5003;50435;43.700;-79.318;2023-01-30T08:32:53;0;0;
64138;PMS5003;50435;43.700;-79.318;2023-01-30T08:35:20;1;1;
64138;PMS5003;50435;43.700;-79.318;2023-01-30T08:37:48;1;1;
64138;PMS5003;50435;43.700;-79.318;2023-01-30T08:40:16;0;0;
64138;PMS5003;50435;43.700;-79.318;2023-01-30T08:42:43;0;0;
64138;PMS5003;50435;43.700;-79.318;2023-01-30T08:45:11;1;1;
64138;PMS5003;50435;43.700;-79.318;2023-01-30T08:47:39;1;1;
64138;PMS5003;50435;43.700;-79.318;2023-01-30T08:50:07;1;1;
64138;PMS5003;50435;43.700;-79.318;2023-01-30T08:52:35;2;2;
64138;PMS5003;50435;43.700;-79.318;2023-01-30T08:55:02;1;1;
64138;PMS5003;50435;43.700;-79.318;2023-01-30T08:57:31;2;2;
64138;PMS5003;50435;43.700;-79.318;2023-01-30T08:59:58;0;0;
64138;PMS5003;50435;43.700;-79.318;2023-01-30T09:02:26;1;1;
64138;PMS5003;50435;43.700;-79.318;2023-01-30T09:04:53;1;1;
64138;PMS5003;50435;43.700;-79.318;2023-01-30T09:07:20;1;1;
64138;PMS5003;50435;43.700;-79.318;2023-01-30T09:09:48;0;0;
64138;PMS5003;50435;43.700;-79.318;2023-01-30T09:12:16;2;0;
64138;PMS5003;50435;43.700;-79.318;2023-01-30T09:14:43;2;2;
64138;PMS5003;50435;43.700;-79.318;2023-01-30T09:17:11;0;0;
64138;PMS5003;50435;43.700;-79.318;2023-01-30T09:19:39;0;0;
64138;PMS5003;50435;43.700;-79.318;2023-01-30T09:22:06;2;2;
64138;PMS5003;50435;43.700;-79.318;2023-01-30T09:24:34;0;0;
64138;PMS5003;50435;43.700;-79.318;2023-01-30T09:27:01;1;1;
64138;PMS5003;50435;43.700;-79.318;2023-01-30T09:29:29;2;2;
64138;PMS5003;50435;43.700;-79.318;2023-01-30T09:31:56;2;1;
64138;PMS5003;50435;43.700;-79.318;2023-01-30T09:34:24;1;1;
64138;PMS5003;50435;43.700;-79.318;2023-01-30T09:36:53;1;1;
64138;PMS5003;50435;43.700;-79.318;2023-01-30T09:39:21;2;2;
64138;PMS5003;50435;43.700;-79.318;2023-01-30T09:41:52;1;1;
64138;PMS5003;50435;43.700;-79.318;2023-01-30T09:44:32;1;1;
64138;PMS5003;50435;43.700;-79.318;2023-01-30T09:47:17;2;2;
64138;PMS5003;50435;43.700;-79.318;2023-01-30T09:49:55;5;3;
64138;PMS5003;50435;43.700;-79.318;2023-01-30T09:52:34;3;3;
64138;PMS5003;50435;43.700;-79.318;2023-01-30T09:55:15;1;1;
64138;PMS5003;50435;43.700;-79.318;2023-01-30T09:57:45;3;1;
64138;PMS5003;50435;43.700;-79.318;2023-01-30T10:00:16;1;1;
64138;PMS5003;50435;43.700;-79.318;2023-01-30T10:02:51;2;2;
64138;PMS5003;50435;43.700;-79.318;2023-01-30T10:05:29;5;5;
64138;PMS5003;50435;43.700;-79.318;2023-01-30T10:08:05;1;1;
64138;PMS5003;50435;43.700;-79.318;2023-01-30T10:10:47;1;1;
64138;PMS5003;50435;43.700;-79.318;2023-01-30T10:13:25;1;1;
64138;PMS5003;50435;43.700;-79.318;2023-01-30T10:16:08;1;1;
64138;PMS5003;50435;43.700;-79.318;2023-01-30T10:18:48;0;0;
64138;PMS5003;50435;43.700;-79.318;2023-01-30T10:21:38;2;2;
64138;PMS5003;50435;43.700;-79.318;2023-01-30T10:24:15;1;1;
64138;PMS5003;50435;43.700;-79.318;2023-01-30T10:26:53;2;2;
64138;PMS5003;50435;43.700;-79.318;2023-01-30T10:29:23;1;1;
64138;PMS5003;50435;43.700;-79.318;2023-01-30T10:31:55;2;2;
64138;PMS5003;50435;43.700;-79.318;2023-01-30T10:34:30;2;2;
64138;PMS5003;50435;43.700;-79.318;2023-01-30T10:37:02;2;2;
64138;PMS5003;50435;43.700;-79.318;2023-01-30T10:39:36;1;1;
64138;PMS5003;50435;43.700;-79.318;2023-01-30T10:42:12;1;1;
64138;PMS5003;50435;43.700;-79.318;2023-01-30T10:44:42;5;2;
64138;PMS5003;50435;43.700;-79.318;2023-01-30T10:47:17;3;2;
64138;PMS5003;50435;43.700;-79.318;2023-01-30T10:50:01;0;0;
64138;PMS5003;50435;43.700;-79.318;2023-01-30T10:52:40;2;1;
64138;PMS5003;50435;43.700;-79.318;2023-01-30T10:55:17;2;1;
64138;PMS5003;50435;43.700;-79.318;2023-01-30T10:57:53;2;2;
64138;PMS5003;50435;43.700;-79.318;2023-01-30T11:00:28;1;1;
64138;PMS5003;50435;43.700;-79.318;2023-01-30T11:03:07;3;3;
64138;PMS5003;50435;43.700;-79.318;2023-01-30T11:05:41;3;3;
64138;PMS5003;50435;43.700;-79.318;2023-01-30T11:08:18;6;3;
64138;PMS5003;50435;43.700;-79.318;2023-01-30T11:10:48;1;1;
64138;PMS5003;50435;43.700;-79.318;2023-01-30T11:13:17;2;2;
64138;PMS5003;50435;43.700;-79.318;2023-01-30T11:15:46;2;2;
64138;PMS5003;50435;43.700;-79.318;2023-01-30T11:18:16;1;1;
64138;PMS5003;50435;43.700;-79.318;2023-01-30T11:20:54;2;2;
64138;PMS5003;50435;43.700;-79.318;2023-01-30T11:23:30;5;5;
64138;PMS5003;50435;43.700;-79.318;2023-01-30T11:26:00;2;1;
64138;PMS5003;50435;43.700;-79.318;2023-01-30T11:28:33;2;2;
64138;PMS5003;50435;43.700;-79.318;2023-01-30T11:31:09;1;1;
64138;PMS5003;50435;43.700;-79.318;2023-01-30T11:33:44;2;1;
64138;PMS5003;50435;43.700;-79.318;2023-01-30T11:36:25;5;3;
64138;PMS5003;50435;43.700;-79.318;2023-01-30T11:38:55;3;3;
64138;PMS5003;50435;43.700;-79.318;2023-01-30T11:41:25;1;1;
64138;PMS5003;50435;43.700;-79.318;2023-01-30T11:43:58;1;1;
64138;PMS5003;50435;43.700;-79.318;2023-01-30T11:46:27;1;1;
64138;PMS5003;50435;43.700;-79.318;2023-01-30T11:48:58;2;2;
64138;PMS5003;50435;43.700;-79.318;2023-01-30T11:51:28;2;2;
64138;PMS5003;50435;43.700;-79.318;2023-01-30T11:54:01;3;1;
64138;PMS5003;50435;43.700;-79.318;2023-01-30T11:56:32;3;3;
64138;PMS5003;50435;43.700;-79.318;2023-01-30T11:59:03;3;2;
64138;PMS5003;50435;43.700;-79.318;2023-01-30T12:01:33;5;5;
64138;PMS5003;50435;43.700;-79.318;2023-01-30T12:04:03;1;1;
64138;PMS5003;50435;43.700;-79.318;2023-01-30T12:06:34;2;1;
64138;PMS5003;50435;43.700;-79.318;2023-01-30T12:09:04;2;2;
64138;PMS5003;50435;43.700;-79.318;2023-01-30T12:11:54;1;1;
64138;PMS5003;50435;43.700;-79.318;2023-01-30T12:14:26;1;1;
64138;PMS5003;50435;43.700;-79.318;2023-01-30T12:17:03;2;2;
64138;PMS5003;50435;43.700;-79.318;2023-01-30T12:19:44;1;1;
64138;PMS5003;50435;43.700;-79.318;2023-01-30T12:22:21;2;2;
64138;PMS5003;50435;43.700;-79.318;2023-01-30T12:24:56;0;0;
64138;PMS5003;50435;43.700;-79.318;2023-01-30T12:27:27;1;1;
64138;PMS5003;50435;43.700;-79.318;2023-01-30T12:30:14;1;1;
64138;PMS5003;50435;43.700;-79.318;2023-01-30T12:32:50;2;2;
64138;PMS5003;50435;43.700;-79.318;2023-01-30T12:35:21;0;0;
64138;PMS5003;50435;43.700;-79.318;2023-01-30T12:37:56;3;2;
64138;PMS5003;50435;43.700;-79.318;2023-01-30T12:40:37;0;0;
64138;PMS5003;50435;43.700;-79.318;2023-01-30T12:43:18;2;2;
64138;PMS5003;50435;43.700;-79.318;2023-01-30T12:46:01;1;1;
64138;PMS5003;50435;43.700;-79.318;2023-01-30T12:48:43;2;2;
64138;PMS5003;50435;43.700;-79.318;2023-01-30T12:51:22;2;2;
64138;PMS5003;50435;43.700;-79.318;2023-01-30T12:54:04;1;1;
64138;PMS5003;50435;43.700;-79.318;2023-01-30T12:56:48;1;1;
64138;PMS5003;50435;43.700;-79.318;2023-01-30T12:59:24;1;1;
64138;PMS5003;50435;43.700;-79.318;2023-01-30T13:02:04;3;2;
64138;PMS5003;50435;43.700;-79.318;2023-01-30T13:04:51;1;1;
64138;PMS5003;50435;43.700;-79.318;2023-01-30T13:07:26;2;2;
64138;PMS5003;50435;43.700;-79.318;2023-01-30T13:10:07;5;3;
64138;PMS5003;50435;43.700;-79.318;2023-01-30T13:12:45;2;2;
64138;PMS5003;50435;43.700;-79.318;2023-01-30T13:15:21;1;1;
64138;PMS5003;50435;43.700;-79.318;2023-01-30T13:18:01;5;2;
64138;PMS5003;50435;43.700;-79.318;2023-01-30T13:20:40;1;1;
64138;PMS5003;50435;43.700;-79.318;2023-01-30T13:23:16;1;1;
64138;PMS5003;50435;43.700;-79.318;2023-01-30T13:25:51;2;2;
64138;PMS5003;50435;43.700;-79.318;2023-01-30T13:28:25;1;1;
64138;PMS5003;50435;43.700;-79.318;2023-01-30T13:30:56;2;2;
64138;PMS5003;50435;43.700;-79.318;2023-01-30T13:33:27;2;2;
64138;PMS5003;50435;43.700;-79.318;2023-01-30T13:36:02;6;5;
64138;PMS5003;50435;43.700;-79.318;2023-01-30T13:38:39;2;2;
64138;PMS5003;50435;43.700;-79.318;2023-01-30T13:41:15;2;2;
64138;PMS5003;50435;43.700;-79.318;2023-01-30T13:43:45;6;3;
64138;PMS5003;50435;43.700;-79.318;2023-01-30T13:46:18;5;5;
64138;PMS5003;50435;43.700;-79.318;2023-01-30T13:48:54;5;5;
64138;PMS5003;50435;43.700;-79.318;2023-01-30T13:51:36;3;3;
64138;PMS5003;50435;43.700;-79.318;2023-01-30T13:54:15;2;2;
64138;PMS5003;50435;43.700;-79.318;2023-01-30T13:56:56;2;2;
64138;PMS5003;50435;43.700;-79.318;2023-01-30T13:59:54;3;3;
64138;PMS5003;50435;43.700;-79.318;2023-01-30T14:03:21;3;3;
64138;PMS5003;50435;43.700;-79.318;2023-01-30T14:07:03;7;3;
64138;PMS5003;50435;43.700;-79.318;2023-01-30T14:09:34;3;3;
64138;PMS5003;50435;43.700;-79.318;2023-01-30T14:12:02;5;5;
64138;PMS5003;50435;43.700;-79.318;2023-01-30T14:14:30;3;2;
64138;PMS5003;50435;43.700;-79.318;2023-01-30T14:17:10;7;6;
64138;PMS5003;50435;43.700;-79.318;2023-01-30T14:19:41;5;5;
64138;PMS5003;50435;43.700;-79.318;2023-01-30T14:22:48;5;5;
64138;PMS5003;50435;43.700;-79.318;2023-01-30T14:25:34;3;3;
64138;PMS5003;50435;43.700;-79.318;2023-01-30T14:28:44;3;3;
64138;PMS5003;50435;43.700;-79.318;2023-01-30T14:31:16;5;5;
64138;PMS5003;50435;43.700;-79.318;2023-01-30T14:34:40;3;3;
64138;PMS5003;50435;43.700;-79.318;2023-01-30T14:37:44;5;5;
64138;PMS5003;50435;43.700;-79.318;2023-01-30T14:42:25;3;3;
64138;PMS5003;50435;43.700;-79.318;2023-01-30T14:44:55;3;3;
64138;PMS5003;50435;43.700;-79.318;2023-01-30T14:47:24;6;6;
64138;PMS5003;50435;43.700;-79.318;2023-01-30T14:49:52;6;3;
64138;PMS5003;50435;43.700;-79.318;2023-01-30T14:52:24;2;2;
64138;PMS5003;50435;43.700;-79.318;2023-01-30T14:55:00;5;5;
64138;PMS5003;50435;43.700;-79.318;2023-01-30T14:57:28;2;2;
64138;PMS5003;50435;43.700;-79.318;2023-01-30T14:59:58;3;3;
64138;PMS5003;50435;43.700;-79.318;2023-01-30T15:02:30;2;2;
64138;PMS5003;50435;43.700;-79.318;2023-01-30T15:05:09;5;3;
64138;PMS5003;50435;43.700;-79.318;2023-01-30T15:07:41;5;3;
64138;PMS5003;50435;43.700;-79.318;2023-01-30T15:10:16;7;6;
64138;PMS5003;50435;43.700;-79.318;2023-01-30T15:13:01;3;3;
64138;PMS5003;50435;43.700;-79.318;2023-01-30T15:15:44;2;2;
64138;PMS5003;50435;43.700;-79.318;2023-01-30T15:18:26;3;3;
64138;PMS5003;50435;43.700;-79.318;2023-01-30T15:21:07;2;2;
64138;PMS5003;50435;43.700;-79.318;2023-01-30T15:23:52;5;5;
64138;PMS5003;50435;43.700;-79.318;2023-01-30T15:26:31;3;3;
64138;PMS5003;50435;43.700;-79.318;2023-01-30T15:29:17;2;2;
64138;PMS5003;50435;43.700;-79.318;2023-01-30T15:32:00;3;2;
64138;PMS5003;50435;43.700;-79.318;2023-01-30T15:34:29;1;1;
64138;PMS5003;50435;43.700;-79.318;2023-01-30T15:36:57;3;3;
64138;PMS5003;50435;43.700;-79.318;2023-01-30T15:39:25;3;2;
64138;PMS5003;50435;43.700;-79.318;2023-01-30T15:41:58;3;3;
64138;PMS5003;50435;43.700;-79.318;2023-01-30T15:44:34;7;5;
64138;PMS5003;50435;43.700;-79.318;2023-01-30T15:47:52;3;2;
64138;PMS5003;50435;43.700;-79.318;2023-01-30T15:50:33;2;2;
64138;PMS5003;50435;43.700;-79.318;2023-01-30T15:53:03;2;2;
64138;PMS5003;50435;43.700;-79.318;2023-01-30T15:55:40;1;1;
64138;PMS5003;50435;43.700;-79.318;2023-01-30T15:58:10;3;3;
64138;PMS5003;50435;43.700;-79.318;2023-01-30T16:00:43;2;2;
64138;PMS5003;50435;43.700;-79.318;2023-01-30T16:03:14;5;3;
64138;PMS5003;50435;43.700;-79.318;2023-01-30T16:05:46;2;2;
64138;PMS5003;50435;43.700;-79.318;2023-01-30T16:08:17;2;2;
64138;PMS5003;50435;43.700;-79.318;2023-01-30T16:10:47;2;2;
64138;PMS5003;50435;43.700;-79.318;2023-01-30T16:13:15;5;2;
64138;PMS5003;50435;43.700;-79.318;2023-01-30T16:15:45;1;1;
64138;PMS5003;50435;43.700;-79.318;2023-01-30T16:18:19;2;2;
64138;PMS5003;50435;43.700;-79.318;2023-01-30T16:20:55;4;3;
64138;PMS5003;50435;43.700;-79.318;2023-01-30T16:23:27;5;5;
64138;PMS5003;50435;43.700;-79.318;2023-01-30T16:25:57;2;2;
64138;PMS5003;50435;43.700;-79.318;2023-01-30T16:28:26;3;2;
64138;PMS5003;50435;43.700;-79.318;2023-01-30T16:30:56;1;1;
64138;PMS5003;50435;43.700;-79.318;2023-01-30T16:33:25;2;2;
64138;PMS5003;50435;43.700;-79.318;2023-01-30T16:35:53;3;2;
64138;PMS5003;50435;43.700;-79.318;2023-01-30T16:38:29;2;2;
64138;PMS5003;50435;43.700;-79.318;2023-01-30T16:41:02;5;3;
64138;PMS5003;50435;43.700;-79.318;2023-01-30T16:43:30;3;3;
64138;PMS5003;50435;43.700;-79.318;2023-01-30T16:46:45;4;4;
64138;PMS5003;50435;43.700;-79.318;2023-01-30T16:49:16;3;3;
64138;PMS5003;50435;43.700;-79.318;2023-01-30T16:51:46;2;2;
64138;PMS5003;50435;43.700;-79.318;2023-01-30T16:54:18;4;3;